sensor_id;sensor_type;location;lat;lon;timestamp;temperature;humidity
11922;DHT22;6021;51.182;3.160;2023-04-21T00:01:04;7.00;98.90
11922;DHT22;6021;51.182;3.160;2023-04-21T00:03:35;6.80;99.30
11922;DHT22;6021;51.182;3.160;2023-04-21T00:06:07;6.60;99.90
11922;DHT22;6021;51.182;3.160;2023-04-21T00:08:36;6.40;99.90
11922;DHT22;6021;51.182;3.160;2023-04-21T00:11:07;6.70;99.90
11922;DHT22;6021;51.182;3.160;2023-04-21T00:13:36;6.70;99.90
11922;DHT22;6021;51.182;3.160;2023-04-21T00:16:05;6.30;99.90
11922;DHT22;6021;51.182;3.160;2023-04-21T00:18:33;6.80;99.90
11922;DHT22;6021;51.182;3.160;2023-04-21T00:21:02;6.60;99.90
11922;DHT22;6021;51.182;3.160;2023-04-21T00:23:30;6.60;99.90
11922;DHT22;6021;51.182;3.160;2023-04-21T00:26:00;6.60;99.90
11922;DHT22;6021;51.182;3.160;2023-04-21T00:28:29;6.60;99.90
11922;DHT22;6021;51.182;3.160;2023-04-21T00:30:57;6.60;99.90
11922;DHT22;6021;51.182;3.160;2023-04-21T00:33:25;6.60;99.90
11922;DHT22;6021;51.182;3.160;2023-04-21T00:35:54;6.70;99.90
11922;DHT22;6021;51.182;3.160;2023-04-21T00:38:24;6.80;99.90
11922;DHT22;6021;51.182;3.160;2023-04-21T00:40:52;6.40;99.90
11922;DHT22;6021;51.182;3.160;2023-04-21T00:43:20;6.50;99.90
11922;DHT22;6021;51.182;3.160;2023-04-21T00:45:49;6.30;99.90
11922;DHT22;6021;51.182;3.160;2023-04-21T00:48:17;6.30;99.90
11922;DHT22;6021;51.182;3.160;2023-04-21T00:50:45;6.20;99.90
11922;DHT22;6021;51.182;3.160;2023-04-21T00:53:14;6.10;99.90
11922;DHT22;6021;51.182;3.160;2023-04-21T00:55:43;6.30;99.90
11922;DHT22;6021;51.182;3.160;2023-04-21T00:58:12;6.20;99.90
11922;DHT22;6021;51.182;3.160;2023-04-21T01:00:40;6.00;99.90
11922;DHT22;6021;51.182;3.160;2023-04-21T01:27:09;6.20;99.90
11922;DHT22;6021;51.182;3.160;2023-04-21T01:35:14;6.10;99.90
11922;DHT22;6021;51.182;3.160;2023-04-21T01:41:00;6.20;99.90
11922;DHT22;6021;51.182;3.160;2023-04-21T01:43:26;6.10;99.90
11922;DHT22;6021;51.182;3.160;2023-04-21T01:46:10;6.20;99.90
11922;DHT22;6021;51.182;3.160;2023-04-21T01:48:46;5.90;99.90
11922;DHT22;6021;51.182;3.160;2023-04-21T01:51:43;6.30;99.90
11922;DHT22;6021;51.182;3.160;2023-04-21T01:54:37;6.00;99.90
11922;DHT22;6021;51.182;3.160;2023-04-21T01:57:19;5.90;99.90
11922;DHT22;6021;51.182;3.160;2023-04-21T02:00:26;6.00;99.90
11922;DHT22;6021;51.182;3.160;2023-04-21T02:03:09;6.00;99.90
11922;DHT22;6021;51.182;3.160;2023-04-21T02:11:54;6.00;99.90
11922;DHT22;6021;51.182;3.160;2023-04-21T02:14:19;5.90;99.90
11922;DHT22;6021;51.182;3.160;2023-04-21T02:19:59;6.00;99.90
11922;DHT22;6021;51.182;3.160;2023-04-21T02:22:48;6.10;99.90
11922;DHT22;6021;51.182;3.160;2023-04-21T02:25:35;6.20;99.90
11922;DHT22;6021;51.182;3.160;2023-04-21T03:02:42;6.70;99.90
11922;DHT22;6021;51.182;3.160;2023-04-21T03:05:12;7.10;99.90
11922;DHT22;6021;51.182;3.160;2023-04-21T03:07:42;7.10;99.90
11922;DHT22;6021;51.182;3.160;2023-04-21T03:10:12;6.90;99.90
11922;DHT22;6021;51.182;3.160;2023-04-21T03:12:40;6.90;99.90
11922;DHT22;6021;51.182;3.160;2023-04-21T03:15:09;7.10;99.90
11922;DHT22;6021;51.182;3.160;2023-04-21T03:17:43;7.10;99.90
11922;DHT22;6021;51.182;3.160;2023-04-21T03:20:13;7.10;99.90
11922;DHT22;6021;51.182;3.160;2023-04-21T03:22:47;6.90;99.90
11922;DHT22;6021;51.182;3.160;2023-04-21T03:25:20;7.10;99.90
11922;DHT22;6021;51.182;3.160;2023-04-21T03:28:04;6.90;99.90
11922;DHT22;6021;51.182;3.160;2023-04-21T03:30:41;7.10;99.90
11922;DHT22;6021;51.182;3.160;2023-04-21T03:33:12;6.90;99.90
11922;DHT22;6021;51.182;3.160;2023-04-21T03:35:47;7.10;99.90
11922;DHT22;6021;51.182;3.160;2023-04-21T03:38:15;7.20;99.90
11922;DHT22;6021;51.182;3.160;2023-04-21T03:40:50;6.70;99.90
11922;DHT22;6021;51.182;3.160;2023-04-21T03:43:43;6.90;99.90
11922;DHT22;6021;51.182;3.160;2023-04-21T03:46:35;7.00;99.90
11922;DHT22;6021;51.182;3.160;2023-04-21T03:57:26;7.20;99.90
11922;DHT22;6021;51.182;3.160;2023-04-21T03:59:56;7.00;99.90
11922;DHT22;6021;51.182;3.160;2023-04-21T04:02:28;7.30;99.90
11922;DHT22;6021;51.182;3.160;2023-04-21T04:05:04;7.20;99.90
11922;DHT22;6021;51.182;3.160;2023-04-21T04:07:41;7.10;99.90
11922;DHT22;6021;51.182;3.160;2023-04-21T04:10:08;7.20;99.90
11922;DHT22;6021;51.182;3.160;2023-04-21T04:12:44;7.00;99.90
11922;DHT22;6021;51.182;3.160;2023-04-21T04:17:51;6.90;99.90
11922;DHT22;6021;51.182;3.160;2023-04-21T04:20:20;7.00;99.90
11922;DHT22;6021;51.182;3.160;2023-04-21T04:22:53;7.00;99.90
11922;DHT22;6021;51.182;3.160;2023-04-21T04:25:22;7.00;99.90
11922;DHT22;6021;51.182;3.160;2023-04-21T04:27:50;7.00;99.90
11922;DHT22;6021;51.182;3.160;2023-04-21T04:30:20;7.00;99.90
11922;DHT22;6021;51.182;3.160;2023-04-21T04:32:52;7.40;99.90
11922;DHT22;6021;51.182;3.160;2023-04-21T04:35:22;6.90;99.90
11922;DHT22;6021;51.182;3.160;2023-04-21T04:37:52;7.30;99.90
11922;DHT22;6021;51.182;3.160;2023-04-21T04:40:24;7.20;99.90
11922;DHT22;6021;51.182;3.160;2023-04-21T04:42:54;7.10;99.90
11922;DHT22;6021;51.182;3.160;2023-04-21T04:45:25;7.10;99.90
11922;DHT22;6021;51.182;3.160;2023-04-21T04:47:53;7.10;99.90
11922;DHT22;6021;51.182;3.160;2023-04-21T04:50:21;7.40;99.90
11922;DHT22;6021;51.182;3.160;2023-04-21T04:52:52;7.10;99.90
11922;DHT22;6021;51.182;3.160;2023-04-21T04:55:21;7.30;99.90
11922;DHT22;6021;51.182;3.160;2023-04-21T04:57:51;7.50;99.90
11922;DHT22;6021;51.182;3.160;2023-04-21T05:00:23;7.40;99.90
11922;DHT22;6021;51.182;3.160;2023-04-21T05:02:57;7.40;99.90
11922;DHT22;6021;51.182;3.160;2023-04-21T05:08:10;7.60;99.90
11922;DHT22;6021;51.182;3.160;2023-04-21T05:10:40;7.30;99.90
11922;DHT22;6021;51.182;3.160;2023-04-21T05:13:09;7.40;99.90
11922;DHT22;6021;51.182;3.160;2023-04-21T05:15:39;7.40;99.90
11922;DHT22;6021;51.182;3.160;2023-04-21T05:18:11;7.40;99.90
11922;DHT22;6021;51.182;3.160;2023-04-21T05:20:49;7.20;99.90
11922;DHT22;6021;51.182;3.160;2023-04-21T05:23:21;7.40;99.90
11922;DHT22;6021;51.182;3.160;2023-04-21T05:25:51;7.20;99.90
11922;DHT22;6021;51.182;3.160;2023-04-21T05:28:22;7.20;99.90
11922;DHT22;6021;51.182;3.160;2023-04-21T05:30:51;7.40;99.90
11922;DHT22;6021;51.182;3.160;2023-04-21T05:33:21;7.40;99.90
11922;DHT22;6021;51.182;3.160;2023-04-21T05:35:51;7.30;99.90
11922;DHT22;6021;51.182;3.160;2023-04-21T05:41:11;7.20;99.90
11922;DHT22;6021;51.182;3.160;2023-04-21T05:43:40;7.20;99.90
11922;DHT22;6021;51.182;3.160;2023-04-21T05:46:11;7.10;99.90
11922;DHT22;6021;51.182;3.160;2023-04-21T05:48:40;7.10;99.90
11922;DHT22;6021;51.182;3.160;2023-04-21T05:51:10;6.90;99.90
11922;DHT22;6021;51.182;3.160;2023-04-21T05:53:39;7.50;99.90
11922;DHT22;6021;51.182;3.160;2023-04-21T05:56:17;7.20;99.90
11922;DHT22;6021;51.182;3.160;2023-04-21T05:58:52;7.30;99.90
11922;DHT22;6021;51.182;3.160;2023-04-21T06:01:20;7.00;99.90
11922;DHT22;6021;51.182;3.160;2023-04-21T06:03:49;7.20;99.90
11922;DHT22;6021;51.182;3.160;2023-04-21T06:06:17;7.30;99.90
11922;DHT22;6021;51.182;3.160;2023-04-21T06:08:56;7.30;99.90
11922;DHT22;6021;51.182;3.160;2023-04-21T06:11:23;7.10;99.90
11922;DHT22;6021;51.182;3.160;2023-04-21T06:14:26;7.40;99.90
11922;DHT22;6021;51.182;3.160;2023-04-21T06:16:51;7.60;99.90
11922;DHT22;6021;51.182;3.160;2023-04-21T06:19:25;7.20;99.90
11922;DHT22;6021;51.182;3.160;2023-04-21T06:21:58;7.20;99.90
11922;DHT22;6021;51.182;3.160;2023-04-21T06:24:32;7.30;99.90
11922;DHT22;6021;51.182;3.160;2023-04-21T06:27:12;7.60;99.90
11922;DHT22;6021;51.182;3.160;2023-04-21T06:29:57;7.60;99.90
11922;DHT22;6021;51.182;3.160;2023-04-21T06:32:31;7.40;99.90
11922;DHT22;6021;51.182;3.160;2023-04-21T06:35:10;7.40;99.90
11922;DHT22;6021;51.182;3.160;2023-04-21T06:37:42;7.60;99.90
11922;DHT22;6021;51.182;3.160;2023-04-21T06:40:11;7.60;99.90
11922;DHT22;6021;51.182;3.160;2023-04-21T06:42:55;7.40;99.90
11922;DHT22;6021;51.182;3.160;2023-04-21T06:45:30;7.40;99.90
11922;DHT22;6021;51.182;3.160;2023-04-21T06:48:01;7.80;99.90
11922;DHT22;6021;51.182;3.160;2023-04-21T06:50:31;7.70;99.90
11922;DHT22;6021;51.182;3.160;2023-04-21T06:52:59;8.00;99.90
11922;DHT22;6021;51.182;3.160;2023-04-21T06:55:28;7.80;99.90
11922;DHT22;6021;51.182;3.160;2023-04-21T06:57:56;8.20;99.90
11922;DHT22;6021;51.182;3.160;2023-04-21T07:00:25;8.20;99.90
11922;DHT22;6021;51.182;3.160;2023-04-21T07:02:56;8.40;99.90
11922;DHT22;6021;51.182;3.160;2023-04-21T07:05:24;8.50;99.90
11922;DHT22;6021;51.182;3.160;2023-04-21T07:07:54;8.30;99.90
11922;DHT22;6021;51.182;3.160;2023-04-21T07:10:27;8.30;99.90
11922;DHT22;6021;51.182;3.160;2023-04-21T07:12:55;8.20;99.90
11922;DHT22;6021;51.182;3.160;2023-04-21T07:15:24;8.10;99.90
11922;DHT22;6021;51.182;3.160;2023-04-21T07:17:52;8.40;99.90
11922;DHT22;6021;51.182;3.160;2023-04-21T07:20:21;8.20;99.90
11922;DHT22;6021;51.182;3.160;2023-04-21T07:22:50;8.30;99.90
11922;DHT22;6021;51.182;3.160;2023-04-21T07:25:30;8.20;99.90
11922;DHT22;6021;51.182;3.160;2023-04-21T07:28:04;8.60;99.90
11922;DHT22;6021;51.182;3.160;2023-04-21T07:30:38;8.40;99.90
11922;DHT22;6021;51.182;3.160;2023-04-21T07:33:06;8.50;99.90
11922;DHT22;6021;51.182;3.160;2023-04-21T07:35:40;8.60;99.90
11922;DHT22;6021;51.182;3.160;2023-04-21T07:41:02;8.70;99.90
11922;DHT22;6021;51.182;3.160;2023-04-21T07:43:30;8.90;99.90
11922;DHT22;6021;51.182;3.160;2023-04-21T07:45:59;9.30;99.90
11922;DHT22;6021;51.182;3.160;2023-04-21T07:48:29;9.10;99.90
11922;DHT22;6021;51.182;3.160;2023-04-21T07:51:00;9.50;99.90
11922;DHT22;6021;51.182;3.160;2023-04-21T07:53:31;9.70;99.90
11922;DHT22;6021;51.182;3.160;2023-04-21T07:56:01;9.90;99.90
11922;DHT22;6021;51.182;3.160;2023-04-21T07:58:36;9.80;99.90
11922;DHT22;6021;51.182;3.160;2023-04-21T08:01:09;9.70;99.90
11922;DHT22;6021;51.182;3.160;2023-04-21T08:06:28;9.80;99.90
11922;DHT22;6021;51.182;3.160;2023-04-21T08:09:01;9.90;99.90
11922;DHT22;6021;51.182;3.160;2023-04-21T08:11:38;9.80;99.90
11922;DHT22;6021;51.182;3.160;2023-04-21T08:14:26;9.70;99.90
11922;DHT22;6021;51.182;3.160;2023-04-21T08:16:52;9.90;99.90
11922;DHT22;6021;51.182;3.160;2023-04-21T08:19:20;9.80;99.90
11922;DHT22;6021;51.182;3.160;2023-04-21T08:21:49;9.80;99.90
11922;DHT22;6021;51.182;3.160;2023-04-21T08:24:19;10.00;99.90
11922;DHT22;6021;51.182;3.160;2023-04-21T08:26:49;10.20;99.90
11922;DHT22;6021;51.182;3.160;2023-04-21T08:29:19;10.40;99.90
11922;DHT22;6021;51.182;3.160;2023-04-21T08:31:47;10.30;99.90
11922;DHT22;6021;51.182;3.160;2023-04-21T08:34:30;10.40;99.90
11922;DHT22;6021;51.182;3.160;2023-04-21T08:37:18;10.40;99.90
11922;DHT22;6021;51.182;3.160;2023-04-21T08:40:05;10.60;99.90
11922;DHT22;6021;51.182;3.160;2023-04-21T08:42:35;10.30;99.90
11922;DHT22;6021;51.182;3.160;2023-04-21T08:45:14;10.30;99.90
11922;DHT22;6021;51.182;3.160;2023-04-21T08:47:45;10.60;99.90
11922;DHT22;6021;51.182;3.160;2023-04-21T08:50:30;10.60;99.90
11922;DHT22;6021;51.182;3.160;2023-04-21T08:53:10;10.60;88.70
11922;DHT22;6021;51.182;3.160;2023-04-21T08:55:49;10.70;98.20
11922;DHT22;6021;51.182;3.160;2023-04-21T08:58:16;10.90;87.40
11922;DHT22;6021;51.182;3.160;2023-04-21T09:00:51;10.90;90.80
11922;DHT22;6021;51.182;3.160;2023-04-21T09:03:30;11.00;37.00
11922;DHT22;6021;51.182;3.160;2023-04-21T09:06:09;11.10;28.10
11922;DHT22;6021;51.182;3.160;2023-04-21T09:11:58;11.10;63.80
11922;DHT22;6021;51.182;3.160;2023-04-21T09:14:41;11.00;27.40
11922;DHT22;6021;51.182;3.160;2023-04-21T09:17:20;11.00;3.80
11922;DHT22;6021;51.182;3.160;2023-04-21T09:19:44;11.60;42.10
11922;DHT22;6021;51.182;3.160;2023-04-21T09:22:25;11.30;5.50
11922;DHT22;6021;51.182;3.160;2023-04-21T09:25:06;11.40;1.00
11922;DHT22;6021;51.182;3.160;2023-04-21T09:27:43;11.30;1.00
11922;DHT22;6021;51.182;3.160;2023-04-21T09:30:13;11.60;1.00
11922;DHT22;6021;51.182;3.160;2023-04-21T09:32:45;11.90;1.00
11922;DHT22;6021;51.182;3.160;2023-04-21T09:35:14;12.30;1.00
11922;DHT22;6021;51.182;3.160;2023-04-21T09:40:35;11.80;1.00
11922;DHT22;6021;51.182;3.160;2023-04-21T09:43:30;11.90;1.00
11922;DHT22;6021;51.182;3.160;2023-04-21T09:46:00;11.40;1.00
11922;DHT22;6021;51.182;3.160;2023-04-21T09:48:42;11.20;1.00
11922;DHT22;6021;51.182;3.160;2023-04-21T09:51:14;11.30;1.00
11922;DHT22;6021;51.182;3.160;2023-04-21T09:53:57;11.50;1.00
11922;DHT22;6021;51.182;3.160;2023-04-21T09:56:24;11.80;1.00
11922;DHT22;6021;51.182;3.160;2023-04-21T09:58:57;11.50;1.00
11922;DHT22;6021;51.182;3.160;2023-04-21T10:01:28;11.50;1.00
11922;DHT22;6021;51.182;3.160;2023-04-21T10:03:58;11.80;1.00
11922;DHT22;6021;51.182;3.160;2023-04-21T10:06:34;12.00;1.00
11922;DHT22;6021;51.182;3.160;2023-04-21T10:09:24;12.10;1.00
11922;DHT22;6021;51.182;3.160;2023-04-21T10:12:13;12.30;1.00
11922;DHT22;6021;51.182;3.160;2023-04-21T10:14:41;12.30;1.00
11922;DHT22;6021;51.182;3.160;2023-04-21T10:17:16;12.10;1.00
11922;DHT22;6021;51.182;3.160;2023-04-21T10:19:54;12.20;1.00
11922;DHT22;6021;51.182;3.160;2023-04-21T10:22:43;12.30;1.00
11922;DHT22;6021;51.182;3.160;2023-04-21T10:25:16;12.70;1.00
11922;DHT22;6021;51.182;3.160;2023-04-21T10:27:53;12.40;1.00
11922;DHT22;6021;51.182;3.160;2023-04-21T10:30:42;12.80;1.00
11922;DHT22;6021;51.182;3.160;2023-04-21T10:33:10;13.30;1.00
11922;DHT22;6021;51.182;3.160;2023-04-21T10:36:01;13.50;1.00
11922;DHT22;6021;51.182;3.160;2023-04-21T10:38:43;13.50;1.00
11922;DHT22;6021;51.182;3.160;2023-04-21T10:41:33;13.80;1.00
11922;DHT22;6021;51.182;3.160;2023-04-21T10:44:23;14.00;1.00
11922;DHT22;6021;51.182;3.160;2023-04-21T10:49:33;14.10;1.00
11922;DHT22;6021;51.182;3.160;2023-04-21T10:52:08;14.00;1.00
11922;DHT22;6021;51.182;3.160;2023-04-21T10:55:05;14.10;1.00
11922;DHT22;6021;51.182;3.160;2023-04-21T10:57:41;13.90;1.00
11922;DHT22;6021;51.182;3.160;2023-04-21T11:00:19;13.80;1.00
11922;DHT22;6021;51.182;3.160;2023-04-21T11:02:58;14.00;1.00
11922;DHT22;6021;51.182;3.160;2023-04-21T11:06:21;14.20;1.00
11922;DHT22;6021;51.182;3.160;2023-04-21T11:09:04;14.20;1.00
11922;DHT22;6021;51.182;3.160;2023-04-21T11:11:42;14.40;1.00
11922;DHT22;6021;51.182;3.160;2023-04-21T11:14:16;14.30;1.00
11922;DHT22;6021;51.182;3.160;2023-04-21T11:16:43;14.50;1.00
11922;DHT22;6021;51.182;3.160;2023-04-21T11:22:17;15.20;1.00
11922;DHT22;6021;51.182;3.160;2023-04-21T11:27:31;15.20;1.00
11922;DHT22;6021;51.182;3.160;2023-04-21T11:30:09;15.40;1.00
11922;DHT22;6021;51.182;3.160;2023-04-21T11:32:41;15.30;1.00
11922;DHT22;6021;51.182;3.160;2023-04-21T11:35:19;15.20;1.00
11922;DHT22;6021;51.182;3.160;2023-04-21T11:37:54;15.10;1.00
11922;DHT22;6021;51.182;3.160;2023-04-21T11:40:27;15.10;1.00
11922;DHT22;6021;51.182;3.160;2023-04-21T11:43:08;15.00;1.00
11922;DHT22;6021;51.182;3.160;2023-04-21T11:45:40;14.90;1.00
11922;DHT22;6021;51.182;3.160;2023-04-21T11:48:17;14.90;1.00
11922;DHT22;6021;51.182;3.160;2023-04-21T11:50:49;15.10;1.00
11922;DHT22;6021;51.182;3.160;2023-04-21T11:53:31;15.30;1.00
11922;DHT22;6021;51.182;3.160;2023-04-21T11:56:01;15.70;1.00
11922;DHT22;6021;51.182;3.160;2023-04-21T11:58:42;15.80;1.00
11922;DHT22;6021;51.182;3.160;2023-04-21T12:01:13;16.00;1.00
11922;DHT22;6021;51.182;3.160;2023-04-21T12:04:11;16.30;1.00
11922;DHT22;6021;51.182;3.160;2023-04-21T12:07:00;16.20;1.00
11922;DHT22;6021;51.182;3.160;2023-04-21T12:09:31;16.30;1.00
11922;DHT22;6021;51.182;3.160;2023-04-21T12:12:06;16.30;1.00
11922;DHT22;6021;51.182;3.160;2023-04-21T12:14:50;16.30;1.00
11922;DHT22;6021;51.182;3.160;2023-04-21T12:17:22;16.00;1.00
11922;DHT22;6021;51.182;3.160;2023-04-21T12:20:05;15.80;1.00
11922;DHT22;6021;51.182;3.160;2023-04-21T12:22:41;15.90;1.00
11922;DHT22;6021;51.182;3.160;2023-04-21T12:25:11;16.40;1.00
11922;DHT22;6021;51.182;3.160;2023-04-21T12:27:56;16.60;1.00
11922;DHT22;6021;51.182;3.160;2023-04-21T12:30:40;16.60;1.00
11922;DHT22;6021;51.182;3.160;2023-04-21T12:33:10;16.20;1.00
11922;DHT22;6021;51.182;3.160;2023-04-21T12:35:40;15.90;1.00
11922;DHT22;6021;51.182;3.160;2023-04-21T12:38:14;15.60;1.00
11922;DHT22;6021;51.182;3.160;2023-04-21T12:40:54;15.50;1.00
11922;DHT22;6021;51.182;3.160;2023-04-21T12:43:35;15.50;1.00
11922;DHT22;6021;51.182;3.160;2023-04-21T12:46:08;15.70;1.00
11922;DHT22;6021;51.182;3.160;2023-04-21T12:48:44;15.60;1.00
11922;DHT22;6021;51.182;3.160;2023-04-21T12:51:14;15.60;1.00
11922;DHT22;6021;51.182;3.160;2023-04-21T12:53:52;15.60;1.00
11922;DHT22;6021;51.182;3.160;2023-04-21T12:59:51;15.90;1.00
11922;DHT22;6021;51.182;3.160;2023-04-21T13:02:24;16.10;1.00
11922;DHT22;6021;51.182;3.160;2023-04-21T13:05:07;16.20;1.00
11922;DHT22;6021;51.182;3.160;2023-04-21T13:07:42;16.40;1.00
11922;DHT22;6021;51.182;3.160;2023-04-21T13:10:11;16.40;1.00
11922;DHT22;6021;51.182;3.160;2023-04-21T13:12:43;16.50;1.00
11922;DHT22;6021;51.182;3.160;2023-04-21T13:15:13;16.70;1.00
11922;DHT22;6021;51.182;3.160;2023-04-21T13:17:44;16.90;1.00
11922;DHT22;6021;51.182;3.160;2023-04-21T13:20:24;17.20;1.00
11922;DHT22;6021;51.182;3.160;2023-04-21T13:22:58;17.30;1.00
11922;DHT22;6021;51.182;3.160;2023-04-21T13:25:26;17.10;1.00
11922;DHT22;6021;51.182;3.160;2023-04-21T13:30:54;16.60;1.00
11922;DHT22;6021;51.182;3.160;2023-04-21T13:33:25;16.30;1.00
11922;DHT22;6021;51.182;3.160;2023-04-21T13:36:03;16.10;1.00
11922;DHT22;6021;51.182;3.160;2023-04-21T13:38:55;15.90;1.00
11922;DHT22;6021;51.182;3.160;2023-04-21T13:44:01;15.90;1.00
11922;DHT22;6021;51.182;3.160;2023-04-21T13:46:30;16.10;1.00
11922;DHT22;6021;51.182;3.160;2023-04-21T13:49:04;16.00;1.00
11922;DHT22;6021;51.182;3.160;2023-04-21T13:51:37;16.10;1.00
11922;DHT22;6021;51.182;3.160;2023-04-21T13:54:22;16.00;1.00
11922;DHT22;6021;51.182;3.160;2023-04-21T13:57:07;16.10;1.00
11922;DHT22;6021;51.182;3.160;2023-04-21T13:59:51;16.00;1.00
11922;DHT22;6021;51.182;3.160;2023-04-21T14:02:22;16.00;1.00
11922;DHT22;6021;51.182;3.160;2023-04-21T14:04:56;16.00;1.00
11922;DHT22;6021;51.182;3.160;2023-04-21T14:07:32;15.90;1.00
11922;DHT22;6021;51.182;3.160;2023-04-21T14:10:02;15.80;1.00
11922;DHT22;6021;51.182;3.160;2023-04-21T14:12:45;15.70;1.00
11922;DHT22;6021;51.182;3.160;2023-04-21T14:15:13;15.80;1.00
11922;DHT22;6021;51.182;3.160;2023-04-21T14:17:52;16.00;1.00
11922;DHT22;6021;51.182;3.160;2023-04-21T14:20:28;16.10;1.00
11922;DHT22;6021;51.182;3.160;2023-04-21T14:22:59;15.90;1.00
11922;DHT22;6021;51.182;3.160;2023-04-21T14:25:30;15.60;1.00
11922;DHT22;6021;51.182;3.160;2023-04-21T14:27:59;15.50;1.00
11922;DHT22;6021;51.182;3.160;2023-04-21T14:30:30;15.40;1.00
11922;DHT22;6021;51.182;3.160;2023-04-21T14:33:01;15.30;1.00
11922;DHT22;6021;51.182;3.160;2023-04-21T14:35:41;15.40;1.00
11922;DHT22;6021;51.182;3.160;2023-04-21T14:38:14;15.50;1.00
11922;DHT22;6021;51.182;3.160;2023-04-21T14:40:46;15.70;1.00
11922;DHT22;6021;51.182;3.160;2023-04-21T14:43:20;16.00;1.00
11922;DHT22;6021;51.182;3.160;2023-04-21T14:45:50;16.10;1.00
11922;DHT22;6021;51.182;3.160;2023-04-21T14:48:31;16.20;1.00
11922;DHT22;6021;51.182;3.160;2023-04-21T14:51:03;16.30;1.00
11922;DHT22;6021;51.182;3.160;2023-04-21T14:53:33;16.40;1.00
11922;DHT22;6021;51.182;3.160;2023-04-21T14:56:03;16.60;1.00
11922;DHT22;6021;51.182;3.160;2023-04-21T14:58:32;16.70;1.00
11922;DHT22;6021;51.182;3.160;2023-04-21T15:01:03;16.60;1.00
11922;DHT22;6021;51.182;3.160;2023-04-21T15:03:40;16.60;1.00
11922;DHT22;6021;51.182;3.160;2023-04-21T15:06:08;16.70;1.00
11922;DHT22;6021;51.182;3.160;2023-04-21T15:08:38;16.80;1.00
11922;DHT22;6021;51.182;3.160;2023-04-21T15:11:23;17.00;1.00
11922;DHT22;6021;51.182;3.160;2023-04-21T15:13:56;17.00;1.00
11922;DHT22;6021;51.182;3.160;2023-04-21T15:16:32;17.00;1.00
11922;DHT22;6021;51.182;3.160;2023-04-21T15:19:08;17.00;1.00
11922;DHT22;6021;51.182;3.160;2023-04-21T15:21:37;17.00;1.00
11922;DHT22;6021;51.182;3.160;2023-04-21T15:24:10;17.00;1.00
11922;DHT22;6021;51.182;3.160;2023-04-21T15:26:42;17.00;1.00
11922;DHT22;6021;51.182;3.160;2023-04-21T15:29:16;17.10;1.00
11922;DHT22;6021;51.182;3.160;2023-04-21T15:31:46;17.00;1.00
11922;DHT22;6021;51.182;3.160;2023-04-21T15:34:17;17.00;1.00
11922;DHT22;6021;51.182;3.160;2023-04-21T15:36:46;16.80;1.00
11922;DHT22;6021;51.182;3.160;2023-04-21T15:39:17;16.80;1.00
11922;DHT22;6021;51.182;3.160;2023-04-21T15:41:48;16.70;1.00
11922;DHT22;6021;51.182;3.160;2023-04-21T15:44:17;16.80;1.00
11922;DHT22;6021;51.182;3.160;2023-04-21T15:46:57;16.70;1.00
11922;DHT22;6021;51.182;3.160;2023-04-21T15:49:22;16.60;1.00
11922;DHT22;6021;51.182;3.160;2023-04-21T15:51:56;16.50;1.00
11922;DHT22;6021;51.182;3.160;2023-04-21T15:54:31;16.50;1.00
11922;DHT22;6021;51.182;3.160;2023-04-21T15:57:04;16.30;1.00
11922;DHT22;6021;51.182;3.160;2023-04-21T15:59:36;16.10;1.00
11922;DHT22;6021;51.182;3.160;2023-04-21T16:02:07;15.90;1.00
11922;DHT22;6021;51.182;3.160;2023-04-21T16:04:35;15.90;1.00
11922;DHT22;6021;51.182;3.160;2023-04-21T16:07:04;15.70;1.00
11922;DHT22;6021;51.182;3.160;2023-04-21T16:09:44;15.50;1.00
11922;DHT22;6021;51.182;3.160;2023-04-21T16:12:20;15.40;1.00
11922;DHT22;6021;51.182;3.160;2023-04-21T16:14:52;15.30;1.00
11922;DHT22;6021;51.182;3.160;2023-04-21T16:17:21;15.20;1.00
11922;DHT22;6021;51.182;3.160;2023-04-21T16:19:51;15.10;1.00
11922;DHT22;6021;51.182;3.160;2023-04-21T16:22:41;15.00;1.00
11922;DHT22;6021;51.182;3.160;2023-04-21T16:24:56;15.00;1.00
11922;DHT22;6021;51.182;3.160;2023-04-21T16:27:24;14.90;1.00
11922;DHT22;6021;51.182;3.160;2023-04-21T16:30:04;14.50;1.00
11922;DHT22;6021;51.182;3.160;2023-04-21T16:32:39;14.20;1.00
11922;DHT22;6021;51.182;3.160;2023-04-21T16:35:11;13.60;1.00
11922;DHT22;6021;51.182;3.160;2023-04-21T16:37:49;12.90;1.00
11922;DHT22;6021;51.182;3.160;2023-04-21T16:40:28;12.20;1.00
11922;DHT22;6021;51.182;3.160;2023-04-21T16:42:57;11.70;1.00
11922;DHT22;6021;51.182;3.160;2023-04-21T16:45:33;11.40;1.00
11922;DHT22;6021;51.182;3.160;2023-04-21T16:48:09;11.00;1.00
11922;DHT22;6021;51.182;3.160;2023-04-21T16:50:45;10.30;1.00
11922;DHT22;6021;51.182;3.160;2023-04-21T16:53:19;9.90;5.20
11922;DHT22;6021;51.182;3.160;2023-04-21T16:55:56;9.80;56.20
11922;DHT22;6021;51.182;3.160;2023-04-21T16:58:24;9.40;99.90
11922;DHT22;6021;51.182;3.160;2023-04-21T17:01:10;9.20;99.90
11922;DHT22;6021;51.182;3.160;2023-04-21T17:03:34;9.10;99.90
11922;DHT22;6021;51.182;3.160;2023-04-21T17:08:44;9.10;99.90
11922;DHT22;6021;51.182;3.160;2023-04-21T17:11:17;8.90;99.90
11922;DHT22;6021;51.182;3.160;2023-04-21T17:13:52;8.80;99.90
11922;DHT22;6021;51.182;3.160;2023-04-21T17:16:33;8.60;99.90
11922;DHT22;6021;51.182;3.160;2023-04-21T17:19:17;8.70;99.90
11922;DHT22;6021;51.182;3.160;2023-04-21T17:21:44;8.30;99.90
11922;DHT22;6021;51.182;3.160;2023-04-21T17:24:58;8.20;99.90
11922;DHT22;6021;51.182;3.160;2023-04-21T17:27:38;8.40;99.90
11922;DHT22;6021;51.182;3.160;2023-04-21T17:30:20;8.20;99.90
11922;DHT22;6021;51.182;3.160;2023-04-21T17:43:48;8.30;99.90
11922;DHT22;6021;51.182;3.160;2023-04-21T17:49:03;8.50;99.90
11922;DHT22;6021;51.182;3.160;2023-04-21T17:51:44;8.20;99.90
11922;DHT22;6021;51.182;3.160;2023-04-21T17:56:52;8.00;99.90
11922;DHT22;6021;51.182;3.160;2023-04-21T17:59:27;7.40;99.90
11922;DHT22;6021;51.182;3.160;2023-04-21T18:02:13;7.50;99.90
11922;DHT22;6021;51.182;3.160;2023-04-21T18:04:34;7.30;99.90
11922;DHT22;6021;51.182;3.160;2023-04-21T18:07:05;7.40;99.90
11922;DHT22;6021;51.182;3.160;2023-04-21T18:09:35;7.60;99.90
11922;DHT22;6021;51.182;3.160;2023-04-21T18:12:19;7.60;99.90
11922;DHT22;6021;51.182;3.160;2023-04-21T18:14:49;7.70;99.90
11922;DHT22;6021;51.182;3.160;2023-04-21T18:17:25;7.90;99.90
11922;DHT22;6021;51.182;3.160;2023-04-21T18:20:00;7.90;99.90
11922;DHT22;6021;51.182;3.160;2023-04-21T18:22:28;7.70;99.90
11922;DHT22;6021;51.182;3.160;2023-04-21T18:24:58;7.90;99.90
11922;DHT22;6021;51.182;3.160;2023-04-21T18:27:27;8.00;99.90
11922;DHT22;6021;51.182;3.160;2023-04-21T18:29:57;7.80;99.90
11922;DHT22;6021;51.182;3.160;2023-04-21T18:32:25;8.00;99.90
11922;DHT22;6021;51.182;3.160;2023-04-21T18:34:54;7.90;99.90
11922;DHT22;6021;51.182;3.160;2023-04-21T18:37:30;8.00;99.90
11922;DHT22;6021;51.182;3.160;2023-04-21T18:40:19;8.20;99.90
11922;DHT22;6021;51.182;3.160;2023-04-21T18:45:36;8.30;99.90
11922;DHT22;6021;51.182;3.160;2023-04-21T18:48:08;8.30;99.90
11922;DHT22;6021;51.182;3.160;2023-04-21T18:50:38;8.20;99.90
11922;DHT22;6021;51.182;3.160;2023-04-21T18:53:08;8.20;99.90
11922;DHT22;6021;51.182;3.160;2023-04-21T18:55:45;8.20;99.90
11922;DHT22;6021;51.182;3.160;2023-04-21T18:58:15;8.20;99.90
11922;DHT22;6021;51.182;3.160;2023-04-21T19:00:44;8.30;99.90
11922;DHT22;6021;51.182;3.160;2023-04-21T19:03:29;8.20;99.90
11922;DHT22;6021;51.182;3.160;2023-04-21T19:05:48;8.10;99.90
11922;DHT22;6021;51.182;3.160;2023-04-21T19:08:24;8.10;99.90